Time;durP1;ratioP1;P1;durP2;ratioP2;P2;SDS_P1;SDS_P2;PMS_P1;PMS_P2;Temp;Humidity;BMP_temperature;BMP_pressure;BME280_temperature;BME280_humidity;BME280_pressure;Samples;Min_cycle;Max_cycle;Signal;HPM_P1;HPM_P2
2021/10/14 00:01:28;;;;;;;5.13;4.63;;;6.00;95.10;;;;;;5101128;28;20180;-46
2021/10/14 00:03:54;;;;;;;5.88;4.90;;;6.00;95.10;;;;;;5108995;28;20192;-46
2021/10/14 00:06:20;;;;;;;5.80;4.80;;;5.90;95.10;;;;;;5106781;28;20180;-45
2021/10/14 00:08:45;;;;;;;5.50;4.70;;;5.90;95.10;;;;;;5108045;28;20562;-46
2021/10/14 00:11:11;;;;;;;5.60;4.97;;;5.90;95.10;;;;;;5108995;28;20211;-46
2021/10/14 00:13:37;;;;;;;5.60;5.10;;;5.90;95.20;;;;;;5108619;28;20256;-45
2021/10/14 00:16:03;;;;;;;10.67;5.30;;;5.80;95.10;;;;;;5105332;28;20196;-46
2021/10/14 00:18:28;;;;;;;5.67;5.10;;;5.80;95.10;;;;;;5107272;28;20263;-46
2021/10/14 00:20:54;;;;;;;6.50;4.77;;;5.80;95.20;;;;;;5107690;28;20724;-46
2021/10/14 00:23:20;;;;;;;5.67;4.97;;;5.80;95.10;;;;;;5108895;28;20180;-46
2021/10/14 00:25:46;;;;;;;5.57;5.07;;;5.70;95.10;;;;;;5089908;28;20832;-46
2021/10/14 00:28:12;;;;;;;6.57;4.60;;;5.70;95.10;;;;;;5106579;28;20431;-46
2021/10/14 00:30:37;;;;;;;6.27;4.80;;;5.70;95.10;;;;;;5107982;28;20458;-46
2021/10/14 00:33:03;;;;;;;5.87;5.27;;;5.70;95.10;;;;;;5107537;28;20188;-46
2021/10/14 00:35:29;;;;;;;5.53;4.93;;;5.60;95.10;;;;;;5115849;28;20506;-46
2021/10/14 00:37:55;;;;;;;5.63;5.00;;;5.60;95.10;;;;;;5117708;28;20458;-46
2021/10/14 00:40:23;;;;;;;5.00;4.60;;;5.60;95.20;;;;;;5117194;28;20280;-46
2021/10/14 00:42:49;;;;;;;4.73;4.30;;;5.60;95.20;;;;;;5117025;28;20195;-46
2021/10/14 00:45:15;;;;;;;8.50;4.37;;;5.60;95.30;;;;;;5099745;28;20408;-46
2021/10/14 00:47:41;;;;;;;5.10;4.60;;;5.50;95.30;;;;;;5117621;28;20468;-46
2021/10/14 00:50:08;;;;;;;5.07;4.47;;;5.50;95.30;;;;;;5117391;28;20212;-44
2021/10/14 00:52:35;;;;;;;5.07;4.60;;;5.50;95.30;;;;;;5116922;28;20429;-46
2021/10/14 00:55:02;;;;;;;5.60;4.37;;;5.50;95.30;;;;;;5097431;28;20509;-46
2021/10/14 00:57:29;;;;;;;6.07;5.10;;;5.50;95.30;;;;;;5116679;28;20704;-46
2021/10/14 00:59:55;;;;;;;4.57;3.93;;;5.50;95.40;;;;;;5098754;28;20414;-46
2021/10/14 01:02:21;;;;;;;4.60;4.20;;;5.40;95.40;;;;;;5096829;28;20858;-45
2021/10/14 01:04:47;;;;;;;5.27;4.77;;;5.40;95.40;;;;;;5099004;28;20429;-46
2021/10/14 01:07:12;;;;;;;5.53;4.63;;;5.40;95.40;;;;;;5116970;28;20418;-46
2021/10/14 01:09:40;;;;;;;5.03;4.30;;;5.40;95.40;;;;;;5116627;28;20492;-46
2021/10/14 01:12:07;;;;;;;7.93;4.70;;;5.40;95.40;;;;;;5116615;28;20193;-46
2021/10/14 01:14:33;;;;;;;5.30;4.80;;;5.30;95.40;;;;;;5117634;28;20418;-46
2021/10/14 01:17:00;;;;;;;6.17;4.70;;;5.30;95.40;;;;;;5117054;28;20406;-45
2021/10/14 01:19:26;;;;;;;5.40;4.07;;;5.30;95.40;;;;;;5117135;28;20519;-45
2021/10/14 01:21:52;;;;;;;7.07;5.10;;;5.30;95.40;;;;;;5117123;28;20409;-46
2021/10/14 01:24:18;;;;;;;7.83;4.80;;;5.30;95.40;;;;;;5116833;28;20418;-46
2021/10/14 01:26:44;;;;;;;5.90;5.30;;;5.20;95.40;;;;;;5116665;28;20497;-46
2021/10/14 01:29:11;;;;;;;5.83;4.13;;;5.20;95.50;;;;;;5117106;28;20422;-46
2021/10/14 01:31:38;;;;;;;5.73;4.67;;;5.20;95.50;;;;;;5096411;28;20720;-46
2021/10/14 01:34:04;;;;;;;7.80;4.93;;;5.20;95.50;;;;;;5111804;28;20912;-46
2021/10/14 01:36:30;;;;;;;5.23;4.73;;;5.10;95.50;;;;;;5097617;28;20511;-46
2021/10/14 01:38:56;;;;;;;4.80;4.17;;;5.10;95.50;;;;;;5100157;28;21135;-46
2021/10/14 01:41:22;;;;;;;4.93;4.10;;;5.10;95.50;;;;;;5100013;28;20471;-46
2021/10/14 01:43:48;;;;;;;5.37;4.40;;;5.10;95.50;;;;;;5099686;28;20177;-49
2021/10/14 01:46:14;;;;;;;5.47;4.70;;;5.10;95.50;;;;;;5100433;28;20168;-45
2021/10/14 01:48:39;;;;;;;5.77;5.17;;;5.10;95.50;;;;;;5083800;28;20235;-46
2021/10/14 01:51:07;;;;;;;5.07;4.50;;;5.10;95.60;;;;;;5106007;28;20188;-46
2021/10/14 01:54:05;;;;;;;5.13;4.50;;;5.00;95.60;;;;;;5110625;28;20456;-46
2021/10/14 01:56:31;;;;;;;6.57;5.67;;;5.00;95.60;;;;;;5110428;28;20413;-46
2021/10/14 01:58:56;;;;;;;5.50;4.60;;;5.00;95.70;;;;;;5110405;28;20418;-45
2021/10/14 02:01:22;;;;;;;5.40;4.70;;;5.00;95.80;;;;;;5110775;28;20211;-46
2021/10/14 02:03:48;;;;;;;4.70;4.30;;;5.00;95.80;;;;;;5109426;28;20507;-46
2021/10/14 02:06:13;;;;;;;7.60;4.67;;;5.00;95.90;;;;;;5111304;28;20187;-46
2021/10/14 02:08:39;;;;;;;5.20;4.70;;;5.00;95.90;;;;;;5107781;28;20181;-46
2021/10/14 02:11:05;;;;;;;5.20;4.70;;;4.90;95.80;;;;;;5107993;28;20234;-46
2021/10/14 02:13:31;;;;;;;6.20;5.17;;;5.00;96.00;;;;;;5108185;28;20222;-46
2021/10/14 02:15:56;;;;;;;5.70;4.90;;;5.00;96.00;;;;;;5108151;28;20168;-46
2021/10/14 02:18:22;;;;;;;7.27;5.33;;;4.90;95.90;;;;;;5104715;28;20434;-46
2021/10/14 02:20:48;;;;;;;6.60;6.00;;;4.90;95.90;;;;;;5099424;28;20172;-46
2021/10/14 02:23:14;;;;;;;7.13;5.50;;;4.90;95.90;;;;;;5105236;28;20181;-46
2021/10/14 02:25:40;;;;;;;7.37;5.17;;;4.90;95.90;;;;;;5104461;28;20177;-46
2021/10/14 02:28:05;;;;;;;5.70;5.10;;;4.90;95.90;;;;;;5102683;28;20512;-46
2021/10/14 02:30:32;;;;;;;9.10;4.67;;;4.90;95.90;;;;;;5100225;28;20196;-46
2021/10/14 02:32:58;;;;;;;5.83;5.23;;;4.80;95.80;;;;;;5100167;28;20191;-46
2021/10/14 02:35:24;;;;;;;5.90;4.90;;;4.80;95.80;;;;;;5116596;28;20457;-46
2021/10/14 02:37:49;;;;;;;5.70;5.20;;;4.80;95.80;;;;;;5119376;28;20194;-46
2021/10/14 02:40:15;;;;;;;7.87;5.73;;;4.80;95.80;;;;;;5120810;28;20178;-45
2021/10/14 02:42:41;;;;;;;6.43;4.70;;;4.80;95.80;;;;;;5120545;28;20184;-46
2021/10/14 02:45:07;;;;;;;4.60;4.20;;;4.80;95.80;;;;;;5120740;28;20180;-46
2021/10/14 02:47:33;;;;;;;5.97;4.47;;;4.70;95.80;;;;;;5120190;28;20184;-46
2021/10/14 02:49:58;;;;;;;5.73;5.10;;;4.70;95.80;;;;;;5120478;28;20463;-46
2021/10/14 02:52:24;;;;;;;4.97;4.47;;;4.70;95.70;;;;;;5120217;28;20169;-46
2021/10/14 02:54:50;;;;;;;5.17;4.67;;;4.70;95.70;;;;;;5120260;28;20169;-45
2021/10/14 02:57:15;;;;;;;5.40;4.80;;;4.70;95.80;;;;;;5119923;28;20233;-46
2021/10/14 02:59:41;;;;;;;4.80;4.27;;;4.70;95.80;;;;;;5120061;28;20271;-46
2021/10/14 03:02:07;;;;;;;4.83;4.30;;;4.70;95.80;;;;;;5120039;28;20180;-46
2021/10/14 03:04:33;;;;;;;5.23;4.73;;;4.60;95.80;;;;;;5119037;28;20176;-48
2021/10/14 03:06:58;;;;;;;5.10;4.47;;;4.60;95.70;;;;;;5119720;28;20176;-46
2021/10/14 03:09:24;;;;;;;5.93;4.40;;;4.60;95.80;;;;;;5119840;28;20176;-46
2021/10/14 03:11:50;;;;;;;7.87;5.40;;;4.60;95.80;;;;;;5119701;28;20617;-46
2021/10/14 03:14:15;;;;;;;7.67;4.90;;;4.60;95.80;;;;;;5119486;28;20173;-46
2021/10/14 03:16:41;;;;;;;4.67;3.97;;;4.60;95.80;;;;;;5101664;28;20171;-46
2021/10/14 03:19:07;;;;;;;5.23;4.50;;;4.60;95.80;;;;;;5119965;28;20443;-45
2021/10/14 03:21:32;;;;;;;5.30;4.67;;;4.50;95.70;;;;;;5119704;28;20180;-46
2021/10/14 03:23:58;;;;;;;4.63;4.10;;;4.50;95.70;;;;;;5118908;28;20211;-46
2021/10/14 03:26:24;;;;;;;4.97;4.57;;;4.50;95.70;;;;;;5119656;28;20562;-46
2021/10/14 03:28:50;;;;;;;5.10;4.47;;;4.50;95.70;;;;;;5120189;28;20468;-46
2021/10/14 03:31:16;;;;;;;5.33;4.83;;;4.50;95.80;;;;;;5101389;28;20238;-46
2021/10/14 03:33:42;;;;;;;8.67;5.70;;;4.50;95.80;;;;;;5118134;28;20417;-46
2021/10/14 03:36:08;;;;;;;5.13;4.63;;;4.50;95.80;;;;;;5117795;28;20421;-46
2021/10/14 03:38:34;;;;;;;5.50;4.87;;;4.40;95.80;;;;;;5100235;28;20267;-46
2021/10/14 03:40:59;;;;;;;5.00;4.23;;;4.40;95.80;;;;;;5117654;28;20484;-45
2021/10/14 03:43:25;;;;;;;5.53;4.90;;;4.40;95.80;;;;;;5116897;28;20180;-46
2021/10/14 03:45:51;;;;;;;5.10;4.60;;;4.40;95.90;;;;;;5117231;28;20456;-46
2021/10/14 03:48:16;;;;;;;4.40;4.00;;;4.40;95.90;;;;;;5099220;28;20179;-46
2021/10/14 03:50:42;;;;;;;4.90;4.40;;;4.40;95.80;;;;;;5099399;28;20208;-46
2021/10/14 03:53:09;;;;;;;4.80;4.23;;;4.40;95.80;;;;;;5117578;28;20176;-46
2021/10/14 03:55:35;;;;;;;7.47;4.30;;;4.40;95.80;;;;;;5117218;28;20171;-46
2021/10/14 03:58:01;;;;;;;4.90;4.10;;;4.40;95.80;;;;;;5118088;28;20436;-46
2021/10/14 04:00:26;;;;;;;5.37;4.67;;;4.40;95.90;;;;;;5117581;28;20692;-46
2021/10/14 04:02:52;;;;;;;4.40;4.00;;;4.40;95.90;;;;;;5117850;28;20249;-47
2021/10/14 04:05:18;;;;;;;4.90;3.70;;;4.40;95.90;;;;;;5118375;28;20171;-47
2021/10/14 04:07:44;;;;;;;6.47;4.40;;;4.40;95.90;;;;;;5118180;28;20554;-47
2021/10/14 04:10:11;;;;;;;4.90;4.40;;;4.40;96.00;;;;;;5117891;28;20211;-47
2021/10/14 04:12:37;;;;;;;8.93;5.30;;;4.40;96.00;;;;;;5118712;28;20175;-47
2021/10/14 04:15:03;;;;;;;5.40;4.90;;;4.40;95.90;;;;;;5116886;28;20447;-47
2021/10/14 04:17:29;;;;;;;5.13;4.50;;;4.40;95.90;;;;;;5115768;28;20422;-47
2021/10/14 04:19:55;;;;;;;8.30;5.60;;;4.40;95.90;;;;;;5097558;28;20524;-47
2021/10/14 04:22:20;;;;;;;5.97;4.93;;;4.40;95.80;;;;;;5115466;28;20203;-47
2021/10/14 04:24:47;;;;;;;6.37;4.87;;;4.40;95.80;;;;;;5115438;28;20240;-47
2021/10/14 04:27:14;;;;;;;7.37;5.77;;;4.40;95.90;;;;;;5114775;28;20190;-47
2021/10/14 04:29:40;;;;;;;9.93;4.80;;;4.40;95.90;;;;;;5115480;28;20485;-47
2021/10/14 04:32:10;;;;;;;6.53;5.67;;;4.40;95.90;;;;;;5115943;28;20500;-47
2021/10/14 04:34:36;;;;;;;7.13;6.20;;;4.40;95.90;;;;;;5097719;28;20257;-47
2021/10/14 04:37:05;;;;;;;6.60;5.73;;;4.40;96.00;;;;;;5115425;28;20497;-47
2021/10/14 04:39:31;;;;;;;6.03;5.27;;;4.40;96.00;;;;;;5114910;28;20513;-47
2021/10/14 04:41:56;;;;;;;7.53;5.60;;;4.40;96.00;;;;;;5116314;28;20498;-47
2021/10/14 04:44:22;;;;;;;6.40;5.07;;;4.40;96.10;;;;;;5115719;28;20171;-47
2021/10/14 04:46:48;;;;;;;6.10;5.30;;;4.50;96.10;;;;;;5115429;28;20176;-47
2021/10/14 04:49:13;;;;;;;6.30;5.70;;;4.50;96.10;;;;;;5116346;28;20187;-47
2021/10/14 04:51:39;;;;;;;7.73;5.90;;;4.50;96.20;;;;;;5115166;28;20203;-47
2021/10/14 04:54:05;;;;;;;8.67;5.50;;;4.50;96.30;;;;;;5115896;28;20262;-47
2021/10/14 04:56:30;;;;;;;6.97;5.90;;;4.50;96.30;;;;;;5096879;28;20168;-47
2021/10/14 04:58:56;;;;;;;5.80;5.30;;;4.50;96.30;;;;;;5113688;28;20204;-47
2021/10/14 05:01:22;;;;;;;5.77;5.20;;;4.60;96.40;;;;;;5114554;28;20267;-47
2021/10/14 05:03:48;;;;;;;8.33;6.23;;;4.60;96.50;;;;;;5108489;28;20188;-47
2021/10/14 05:06:14;;;;;;;8.60;5.20;;;4.60;96.60;;;;;;5094636;28;20418;-47
2021/10/14 05:08:39;;;;;;;6.13;5.43;;;4.60;96.60;;;;;;5094760;28;20686;-48
2021/10/14 05:11:12;;;;;;;5.47;4.60;;;4.60;96.70;;;;;;5093666;28;20213;-47
2021/10/14 05:13:39;;;;;;;5.90;4.90;;;4.70;96.80;;;;;;5075881;28;20180;-47
2021/10/14 05:16:05;;;;;;;5.27;4.87;;;4.70;96.80;;;;;;5094385;28;20418;-47
2021/10/14 05:18:31;;;;;;;6.00;5.40;;;4.70;96.80;;;;;;5076132;28;20423;-47
2021/10/14 05:20:57;;;;;;;6.60;5.50;;;4.70;96.80;;;;;;5093108;28;20425;-47
2021/10/14 05:23:23;;;;;;;8.50;5.53;;;4.70;96.90;;;;;;5092553;28;20422;-47
2021/10/14 05:25:49;;;;;;;6.47;5.40;;;4.70;96.90;;;;;;5094637;28;20430;-47
2021/10/14 05:28:16;;;;;;;5.60;4.77;;;4.80;97.00;;;;;;5096347;28;20431;-47
2021/10/14 05:30:42;;;;;;;5.47;4.90;;;4.80;97.10;;;;;;5097203;28;20467;-47
2021/10/14 05:33:08;;;;;;;5.70;4.90;;;4.80;97.10;;;;;;5096856;28;20418;-47
2021/10/14 05:35:34;;;;;;;5.53;5.00;;;4.80;97.10;;;;;;5078068;28;20485;-47
2021/10/14 05:38:04;;;;;;;5.60;5.10;;;4.80;97.20;;;;;;5096900;28;20263;-48
2021/10/14 05:40:30;;;;;;;4.23;3.83;;;4.90;97.20;;;;;;5095687;28;20431;-47
2021/10/14 05:42:56;;;;;;;5.10;3.83;;;4.90;97.20;;;;;;5096067;28;20511;-47
2021/10/14 05:45:21;;;;;;;4.83;4.37;;;4.90;97.30;;;;;;5096301;28;20559;-47
2021/10/14 05:47:47;;;;;;;5.27;4.50;;;5.00;97.40;;;;;;5078269;28;20449;-47
2021/10/14 05:50:13;;;;;;;4.53;3.97;;;5.00;97.40;;;;;;5094686;28;20263;-47
2021/10/14 05:52:39;;;;;;;6.00;4.40;;;5.00;97.40;;;;;;5094803;28;20191;-47
2021/10/14 05:55:05;;;;;;;5.87;5.20;;;5.10;97.40;;;;;;5093179;28;20175;-47
2021/10/14 05:57:31;;;;;;;6.30;4.80;;;5.10;97.40;;;;;;5095218;28;20188;-48
2021/10/14 05:59:56;;;;;;;6.03;3.60;;;5.10;97.40;;;;;;5095861;28;20414;-47
2021/10/14 06:02:23;;;;;;;4.97;4.20;;;5.20;97.50;;;;;;5096065;28;20605;-48
2021/10/14 06:04:50;;;;;;;4.33;3.57;;;5.20;97.40;;;;;;5095983;28;20267;-47
2021/10/14 06:07:18;;;;;;;4.23;3.80;;;5.30;97.50;;;;;;5095184;28;20430;-47
2021/10/14 06:09:44;;;;;;;7.93;4.70;;;5.30;97.40;;;;;;5095630;28;20418;-48
2021/10/14 06:12:12;;;;;;;5.67;4.40;;;5.40;97.40;;;;;;5102463;28;20441;-48
2021/10/14 06:14:38;;;;;;;4.23;3.70;;;5.50;97.50;;;;;;5103216;28;20427;-47
2021/10/14 06:17:04;;;;;;;5.40;4.70;;;5.50;97.40;;;;;;5097222;28;20531;-48
2021/10/14 06:19:30;;;;;;;5.80;4.33;;;5.60;97.30;;;;;;5097641;28;20716;-47
2021/10/14 06:21:56;;;;;;;4.20;3.80;;;5.70;97.20;;;;;;5100723;28;20434;-47
2021/10/14 06:24:21;;;;;;;5.67;5.00;;;5.80;97.10;;;;;;5095479;28;20223;-48
2021/10/14 06:26:47;;;;;;;5.10;4.40;;;5.90;97.00;;;;;;5118484;28;20255;-47
2021/10/14 06:29:13;;;;;;;6.90;4.90;;;6.00;96.90;;;;;;5102422;28;20199;-48
2021/10/14 06:31:39;;;;;;;5.77;5.20;;;6.20;96.90;;;;;;5098497;28;20209;-48
2021/10/14 06:34:05;;;;;;;5.73;4.70;;;6.30;96.80;;;;;;5098013;28;20478;-48
2021/10/14 06:36:32;;;;;;;5.97;5.13;;;6.40;96.70;;;;;;5098330;28;20689;-47
2021/10/14 06:38:58;;;;;;;5.80;4.70;;;6.60;96.70;;;;;;5097547;28;20504;-48
2021/10/14 06:41:24;;;;;;;6.90;5.40;;;6.70;96.60;;;;;;5109018;28;20446;-47
2021/10/14 06:43:50;;;;;;;5.97;5.37;;;6.90;96.60;;;;;;5118744;28;20430;-48
2021/10/14 06:46:17;;;;;;;5.90;4.97;;;7.00;96.50;;;;;;5119007;28;20413;-48
2021/10/14 06:48:42;;;;;;;8.30;5.00;;;7.30;96.60;;;;;;5117686;28;20437;-48
2021/10/14 06:51:09;;;;;;;4.30;3.90;;;7.50;96.40;;;;;;5118616;28;20465;-48
2021/10/14 06:53:35;;;;;;;7.70;4.83;;;7.70;96.10;;;;;;5098105;28;20185;-48
2021/10/14 06:56:01;;;;;;;5.70;5.10;;;7.90;95.80;;;;;;5115007;28;20499;-48
2021/10/14 06:58:27;;;;;;;5.73;5.10;;;8.00;95.60;;;;;;5114815;28;20176;-47
2021/10/14 07:00:53;;;;;;;6.30;5.50;;;8.20;95.40;;;;;;5114548;28;20421;-48
2021/10/14 07:03:21;;;;;;;6.30;4.63;;;8.50;95.30;;;;;;5112399;28;20430;-48
2021/10/14 07:05:47;;;;;;;5.03;4.53;;;8.70;95.10;;;;;;5114230;28;20168;-48
2021/10/14 07:08:13;;;;;;;5.50;4.67;;;9.10;95.00;;;;;;5097935;28;20874;-48
2021/10/14 07:10:45;;;;;;;4.90;4.40;;;9.60;94.60;;;;;;5097209;28;20548;-48
2021/10/14 07:13:12;;;;;;;5.10;4.30;;;10.30;93.30;;;;;;5116924;28;21026;-47
2021/10/14 07:15:39;;;;;;;4.50;4.10;;;11.00;91.90;;;;;;5117179;28;20409;-48
2021/10/14 07:18:05;;;;;;;4.87;4.00;;;11.50;90.80;;;;;;5117058;28;20739;-48
2021/10/14 07:20:31;;;;;;;4.47;4.07;;;11.80;89.90;;;;;;5117619;28;20474;-48
2021/10/14 07:22:57;;;;;;;4.50;3.50;;;12.00;88.60;;;;;;5116635;28;20438;-47
2021/10/14 07:25:23;;;;;;;5.07;4.10;;;12.10;87.60;;;;;;5116391;28;20847;-48
2021/10/14 07:27:49;;;;;;;6.90;4.70;;;12.20;86.50;;;;;;5116283;28;20176;-48
2021/10/14 07:30:18;;;;;;;4.20;3.73;;;12.50;86.50;;;;;;5116747;28;20569;-48
2021/10/14 07:32:44;;;;;;;4.00;3.63;;;12.90;85.70;;;;;;5098836;28;20506;-48
2021/10/14 07:35:10;;;;;;;4.70;3.70;;;13.10;85.10;;;;;;5116363;28;20479;-48
2021/10/14 07:37:36;;;;;;;6.53;3.73;;;13.10;84.40;;;;;;5098174;28;20828;-48
2021/10/14 07:40:06;;;;;;;2.90;1.90;;;13.10;84.30;;;;;;5099440;28;20176;-48
2021/10/14 07:42:31;;;;;;;2.00;1.70;;;13.20;91.20;;;;;;5116022;28;20442;-47
2021/10/14 07:44:57;;;;;;;3.40;1.80;;;13.60;94.60;;;;;;5114719;28;20416;-48
2021/10/14 07:47:24;;;;;;;7.10;2.00;;;14.10;95.90;;;;;;5116029;28;20775;-48
2021/10/14 07:49:51;;;;;;;4.63;2.37;;;14.60;96.20;;;;;;5115652;28;20211;-48
2021/10/14 07:52:16;;;;;;;2.87;2.57;;;15.10;95.80;;;;;;5116992;28;20813;-48
2021/10/14 07:54:42;;;;;;;3.67;2.80;;;15.60;94.90;;;;;;5118066;28;20420;-40
2021/10/14 07:57:08;;;;;;;3.53;2.30;;;16.20;94.00;;;;;;5116189;28;20174;-40
2021/10/14 07:59:34;;;;;;;6.57;2.77;;;17.10;92.80;;;;;;5097785;28;20823;-41
2021/10/14 08:02:00;;;;;;;5.90;2.87;;;18.30;91.30;;;;;;5117475;28;20259;-40
2021/10/14 08:04:28;;;;;;;3.27;2.13;;;19.60;86.70;;;;;;5117723;28;20493;-40
2021/10/14 08:06:54;;;;;;;6.40;2.97;;;20.20;81.80;;;;;;5099279;28;20410;-42
2021/10/14 08:09:20;;;;;;;3.30;2.87;;;20.50;78.10;;;;;;5099271;28;20194;-47
2021/10/14 08:11:45;;;;;;;3.50;2.90;;;20.80;76.00;;;;;;5117152;28;20224;-43
2021/10/14 08:14:12;;;;;;;2.87;2.53;;;20.90;74.10;;;;;;5116690;28;20237;-43
2021/10/14 08:16:38;;;;;;;3.97;2.60;;;21.20;72.20;;;;;;5116781;28;20172;-40
2021/10/14 08:19:04;;;;;;;4.03;2.60;;;21.70;69.60;;;;;;5116092;28;20440;-39
2021/10/14 08:21:30;;;;;;;3.20;2.67;;;22.10;67.80;;;;;;5116981;28;20418;-40
2021/10/14 08:23:56;;;;;;;5.40;2.60;;;22.50;66.10;;;;;;5117505;28;20203;-40
2021/10/14 08:26:21;;;;;;;3.40;2.50;;;23.60;63.10;;;;;;5117339;28;20540;-40
2021/10/14 08:28:47;;;;;;;2.90;2.30;;;24.70;59.10;;;;;;5117161;28;20225;-41
2021/10/14 08:31:14;;;;;;;2.83;2.37;;;26.30;56.00;;;;;;5116956;28;20229;-44
2021/10/14 08:33:40;;;;;;;3.87;2.13;;;27.80;51.70;;;;;;5116357;28;20192;-42
2021/10/14 08:36:06;;;;;;;3.83;2.50;;;29.40;48.30;;;;;;5116057;28;21028;-40
2021/10/14 08:38:33;;;;;;;3.87;2.33;;;30.70;44.30;;;;;;5116516;28;20168;-41
2021/10/14 08:40:59;;;;;;;3.13;2.33;;;31.90;41.50;;;;;;5115267;28;20459;-45
2021/10/14 08:43:27;;;;;;;3.17;2.60;;;33.00;38.90;;;;;;5116086;28;20741;-43
2021/10/14 08:45:53;;;;;;;2.33;2.13;;;33.80;36.90;;;;;;5115354;28;20506;-42
2021/10/14 08:48:19;;;;;;;2.57;2.20;;;34.50;35.20;;;;;;5096484;28;20417;-43
2021/10/14 08:50:47;;;;;;;3.13;2.67;;;35.20;33.80;;;;;;5115218;28;20576;-41
2021/10/14 08:53:13;;;;;;;2.80;2.50;;;35.80;32.30;;;;;;5114568;28;20417;-44
2021/10/14 08:55:40;;;;;;;3.28;2.40;;;36.30;31.40;;;;;;5098878;28;20777;-42
2021/10/14 08:58:10;;;;;;;3.50;2.30;;;36.60;30.40;;;;;;5116919;28;20302;-42
2021/10/14 09:00:38;;;;;;;3.60;2.60;;;37.00;29.80;;;;;;5115447;28;20462;-43
2021/10/14 09:03:25;;;;;;;3.37;2.43;;;37.40;29.50;;;;;;5118331;28;20451;-42
2021/10/14 09:05:54;;;;;;;2.53;2.23;;;37.70;29.10;;;;;;5121009;28;20553;-43
2021/10/14 09:08:44;;;;;;;2.80;2.27;;;38.00;28.50;;;;;;5102825;28;20387;-41
2021/10/14 09:11:17;;;;;;;2.50;2.30;;;38.20;28.20;;;;;;5100180;28;20601;-43
2021/10/14 09:13:51;;;;;;;3.22;2.92;;;38.50;28.10;;;;;;5118548;28;20771;-44
2021/10/14 09:16:46;;;;;;;2.40;2.20;;;38.70;27.50;;;;;;5119423;28;20162;-40
2021/10/14 09:19:17;;;;;;;2.83;2.10;;;39.00;27.50;;;;;;5079325;28;20502;-41
2021/10/14 09:21:56;;;;;;;3.00;2.70;;;39.30;26.90;;;;;;5119203;28;20391;-42
2021/10/14 09:24:35;;;;;;;3.37;2.73;;;39.40;26.60;;;;;;5099849;28;20409;-42
2021/10/14 09:27:14;;;;;;;7.33;2.83;;;39.40;26.20;;;;;;5119087;28;20409;-39
2021/10/14 09:29:41;;;;;;;3.70;2.73;;;39.40;26.00;;;;;;5117904;28;20411;-41
2021/10/14 09:32:20;;;;;;;2.58;2.30;;;39.40;26.00;;;;;;5118971;28;20394;-43
2021/10/14 09:34:47;;;;;;;2.23;1.90;;;39.10;25.90;;;;;;5118765;28;20278;-40
2021/10/14 09:37:15;;;;;;;3.23;2.50;;;38.80;25.90;;;;;;5117643;28;20408;-41
2021/10/14 09:40:14;;;;;;;3.40;2.58;;;38.60;26.00;;;;;;5117375;28;20425;-40
2021/10/14 09:42:54;;;;;;;2.53;2.17;;;38.60;26.10;;;;;;5117980;28;20180;-42
2021/10/14 09:45:30;;;;;;;3.27;2.60;;;38.50;25.70;;;;;;5117688;28;20436;-39
2021/10/14 09:48:05;;;;;;;2.60;2.40;;;38.20;25.80;;;;;;5116520;28;20690;-40
2021/10/14 09:50:32;;;;;;;2.03;1.80;;;37.90;25.90;;;;;;5115929;28;20425;-42
2021/10/14 09:53:04;;;;;;;3.10;1.80;;;37.60;25.80;;;;;;5098833;28;20479;-40
2021/10/14 09:55:30;;;;;;;3.43;2.47;;;37.40;26.00;;;;;;5097205;28;20786;-43
2021/10/14 09:57:56;;;;;;;2.60;2.10;;;37.30;26.10;;;;;;5097454;28;20568;-42
2021/10/14 10:00:28;;;;;;;2.55;2.00;;;37.10;26.30;;;;;;5115448;28;20452;-41
2021/10/14 10:02:54;;;;;;;3.53;2.07;;;37.00;26.60;;;;;;5116219;28;20687;-39
2021/10/14 10:05:20;;;;;;;2.27;2.00;;;37.10;26.70;;;;;;5100324;28;20473;-41
2021/10/14 10:07:48;;;;;;;1.77;1.60;;;37.40;26.60;;;;;;5100268;28;20412;-40
2021/10/14 10:10:20;;;;;;;3.13;2.63;;;37.60;26.60;;;;;;5101672;28;20430;-40
2021/10/14 10:12:50;;;;;;;3.00;2.50;;;37.90;26.40;;;;;;5119506;28;20422;-41
2021/10/14 10:15:38;;;;;;;3.00;2.30;;;38.00;26.20;;;;;;5100361;28;20437;-40
2021/10/14 10:18:27;;;;;;;2.50;2.20;;;38.00;25.80;;;;;;5119031;28;20409;-41
2021/10/14 10:21:06;;;;;;;2.23;2.00;;;38.50;25.70;;;;;;5118209;28;20574;-40
2021/10/14 10:23:48;;;;;;;2.60;2.40;;;38.90;25.50;;;;;;5100697;28;20481;-40
2021/10/14 10:26:33;;;;;;;3.83;2.30;;;39.50;25.50;;;;;;5118253;28;20425;-41
2021/10/14 10:29:14;;;;;;;4.10;2.30;;;40.40;25.20;;;;;;5118939;28;20397;-40
2021/10/14 10:31:52;;;;;;;2.47;2.03;;;41.20;24.80;;;;;;5119113;28;20837;-41
2021/10/14 10:34:42;;;;;;;3.23;2.77;;;41.40;24.20;;;;;;5100421;28;20492;-41
2021/10/14 10:37:15;;;;;;;2.90;2.28;;;40.90;24.60;;;;;;5118694;28;20412;-43
2021/10/14 10:39:56;;;;;;;3.20;2.23;;;40.30;24.70;;;;;;5101715;28;20186;-39
2021/10/14 10:42:44;;;;;;;3.67;2.60;;;39.30;24.80;;;;;;5118517;28;20429;-44
2021/10/14 10:45:16;;;;;;;2.40;2.20;;;38.10;25.10;;;;;;5118359;28;20413;-43
2021/10/14 10:47:58;;;;;;;2.50;2.20;;;37.10;25.50;;;;;;5116563;28;20918;-41
2021/10/14 10:50:27;;;;;;;2.65;2.20;;;36.30;26.00;;;;;;5116813;28;20838;-41
2021/10/14 10:53:07;;;;;;;2.70;2.10;;;35.60;26.50;;;;;;5116213;28;20510;-41
2021/10/14 10:55:33;;;;;;;3.37;2.23;;;35.10;26.50;;;;;;5116480;28;20476;-42
2021/10/14 10:58:00;;;;;;;2.70;2.47;;;34.80;26.60;;;;;;5116641;28;20420;-40
2021/10/14 11:00:26;;;;;;;2.83;2.53;;;34.50;26.70;;;;;;5102579;28;20576;-42
2021/10/14 11:03:11;;;;;;;2.90;2.03;;;34.20;26.90;;;;;;5095646;28;20417;-41
2021/10/14 11:05:51;;;;;;;2.90;2.07;;;34.00;27.00;;;;;;5078669;28;20444;-42
2021/10/14 11:08:31;;;;;;;5.07;2.57;;;34.30;27.10;;;;;;5095778;28;20480;-42
2021/10/14 11:11:08;;;;;;;3.07;2.40;;;35.00;26.90;;;;;;5098131;28;20445;-41
2021/10/14 11:13:36;;;;;;;2.70;2.30;;;35.30;26.60;;;;;;5117501;28;20396;-42
2021/10/14 11:16:04;;;;;;;3.03;2.57;;;35.40;26.60;;;;;;5117058;28;20622;-43
2021/10/14 11:18:31;;;;;;;3.90;2.40;;;35.50;26.60;;;;;;5117163;28;20436;-43
2021/10/14 11:21:02;;;;;;;2.67;2.27;;;35.70;26.60;;;;;;5116898;28;20569;-42
2021/10/14 11:23:49;;;;;;;2.73;2.50;;;36.10;26.50;;;;;;5116591;28;20402;-43
2021/10/14 11:26:31;;;;;;;2.17;1.87;;;37.10;26.50;;;;;;5116188;28;21018;-41
2021/10/14 11:29:10;;;;;;;2.53;2.33;;;38.20;26.20;;;;;;5115354;28;20409;-42
2021/10/14 11:32:02;;;;;;;2.87;2.30;;;39.10;25.80;;;;;;5117428;28;20444;-41
2021/10/14 11:34:28;;;;;;;2.77;2.30;;;40.10;25.80;;;;;;5117017;28;20469;-42
2021/10/14 11:37:03;;;;;;;3.10;2.80;;;40.60;25.50;;;;;;5082888;28;20754;-42
2021/10/14 11:39:45;;;;;;;3.83;2.77;;;41.00;25.20;;;;;;5059580;28;20439;-44
2021/10/14 11:42:15;;;;;;;3.70;3.07;;;40.90;25.30;;;;;;5074299;28;20426;-43
2021/10/14 11:44:49;;;;;;;3.00;2.80;;;40.80;25.60;;;;;;5074147;28;20427;-42
2021/10/14 11:47:21;;;;;;;2.50;2.23;;;41.50;25.60;;;;;;5074740;28;20479;-45
2021/10/14 11:50:13;;;;;;;3.10;2.80;;;41.90;25.40;;;;;;5057870;28;20667;-41
2021/10/14 11:52:40;;;;;;;3.20;2.70;;;41.60;24.80;;;;;;5057943;28;20697;-43
2021/10/14 11:55:09;;;;;;;3.53;3.20;;;40.70;25.10;;;;;;5076556;28;20508;-40
2021/10/14 11:57:36;;;;;;;3.47;3.07;;;39.70;25.40;;;;;;5075086;28;20857;-42
2021/10/14 12:00:07;;;;;;;2.90;2.70;;;38.80;25.90;;;;;;5074788;28;20487;-42
2021/10/14 12:02:33;;;;;;;3.43;2.93;;;38.00;26.00;;;;;;5056789;28;20185;-43
2021/10/14 12:05:02;;;;;;;3.47;2.60;;;38.00;26.00;;;;;;5074326;28;20427;-40
2021/10/14 12:07:32;;;;;;;3.93;2.83;;;38.90;26.00;;;;;;5073776;28;20179;-43
2021/10/14 12:09:59;;;;;;;4.47;2.43;;;40.20;25.60;;;;;;5074364;28;20477;-42
2021/10/14 12:12:26;;;;;;;2.70;2.50;;;41.40;25.40;;;;;;5101657;28;20869;-42
2021/10/14 12:15:04;;;;;;;3.78;2.47;;;42.40;25.20;;;;;;5109830;28;20529;-42
2021/10/14 12:17:40;;;;;;;3.07;2.57;;;43.40;24.90;;;;;;5076326;28;20177;-40
2021/10/14 12:20:10;;;;;;;2.60;2.40;;;43.80;24.90;;;;;;5076454;28;20558;-41
2021/10/14 12:22:42;;;;;;;2.27;2.07;;;44.60;24.30;;;;;;5075864;28;20411;-41
2021/10/14 12:25:09;;;;;;;2.90;2.53;;;45.00;24.20;;;;;;5091863;28;20533;-44
2021/10/14 12:27:48;;;;;;;3.07;2.77;;;45.40;24.20;;;;;;5096481;28;20403;-43
2021/10/14 12:30:37;;;;;;;2.83;2.50;;;45.70;24.10;;;;;;5096065;28;20426;-41
2021/10/14 12:33:12;;;;;;;2.73;2.53;;;45.70;23.90;;;;;;5094703;28;20425;-45
2021/10/14 12:35:50;;;;;;;2.37;2.17;;;46.40;24.00;;;;;;5108829;28;20480;-41
2021/10/14 12:38:17;;;;;;;2.30;2.10;;;46.80;23.80;;;;;;5115183;28;20420;-42
2021/10/14 12:41:12;;;;;;;2.90;2.50;;;46.90;23.50;;;;;;5115343;28;20466;-45
2021/10/14 12:43:39;;;;;;;2.60;2.07;;;47.10;23.50;;;;;;5115180;28;20181;-43
2021/10/14 12:46:24;;;;;;;3.08;2.88;;;47.20;23.40;;;;;;5112909;28;20968;-45
2021/10/14 12:49:03;;;;;;;2.30;2.10;;;46.90;23.20;;;;;;5113138;28;20167;-42
2021/10/14 12:51:40;;;;;;;2.37;2.17;;;47.30;23.40;;;;;;5112653;28;20449;-41
2021/10/14 12:54:12;;;;;;;2.53;2.20;;;47.70;23.40;;;;;;5094402;28;20401;-42
2021/10/14 12:56:43;;;;;;;2.27;2.00;;;48.10;23.20;;;;;;5112376;28;20420;-42
2021/10/14 12:59:11;;;;;;;2.50;2.30;;;48.20;23.10;;;;;;5113740;28;20405;-43
2021/10/14 13:01:41;;;;;;;2.57;2.10;;;48.40;23.20;;;;;;5112911;28;20486;-41